sensor_id;sensor_type;location;lat;lon;timestamp;temperature;humidity
68128;SHT30;54931;52.098;21.006;2022-12-07T00:01:43;2.13;88.46
68128;SHT30;54931;52.098;21.006;2022-12-07T00:04:13;2.15;88.40
68128;SHT30;54931;52.098;21.006;2022-12-07T00:06:46;2.18;88.40
68128;SHT30;54931;52.098;21.006;2022-12-07T00:09:20;2.21;88.42
68128;SHT30;54931;52.098;21.006;2022-12-07T00:11:49;2.23;88.40
68128;SHT30;54931;52.098;21.006;2022-12-07T00:14:18;2.25;88.48
68128;SHT30;54931;52.098;21.006;2022-12-07T00:16:48;2.30;88.51
68128;SHT30;54931;52.098;21.006;2022-12-07T00:19:18;2.33;88.55
68128;SHT30;54931;52.098;21.006;2022-12-07T00:21:46;2.38;88.57
68128;SHT30;54931;52.098;21.006;2022-12-07T00:24:14;2.39;88.51
68128;SHT30;54931;52.098;21.006;2022-12-07T00:26:42;2.41;88.57
68128;SHT30;54931;52.098;21.006;2022-12-07T00:29:20;2.44;88.64
68128;SHT30;54931;52.098;21.006;2022-12-07T00:31:50;2.47;88.76
68128;SHT30;54931;52.098;21.006;2022-12-07T00:34:18;2.51;88.89
68128;SHT30;54931;52.098;21.006;2022-12-07T00:36:48;2.55;88.91
68128;SHT30;54931;52.098;21.006;2022-12-07T00:39:17;2.60;88.97
68128;SHT30;54931;52.098;21.006;2022-12-07T00:41:45;2.63;89.20
68128;SHT30;54931;52.098;21.006;2022-12-07T00:44:13;2.68;89.19
68128;SHT30;54931;52.098;21.006;2022-12-07T00:46:40;2.71;89.15
68128;SHT30;54931;52.098;21.006;2022-12-07T00:49:08;2.75;89.17
68128;SHT30;54931;52.098;21.006;2022-12-07T00:51:36;2.80;89.12
68128;SHT30;54931;52.098;21.006;2022-12-07T00:54:03;2.85;89.10
68128;SHT30;54931;52.098;21.006;2022-12-07T00:56:31;2.89;89.05
68128;SHT30;54931;52.098;21.006;2022-12-07T00:59:00;2.93;89.04
68128;SHT30;54931;52.098;21.006;2022-12-07T01:01:31;2.97;89.03
68128;SHT30;54931;52.098;21.006;2022-12-07T01:04:03;2.99;88.98
68128;SHT30;54931;52.098;21.006;2022-12-07T01:06:32;3.03;89.00
68128;SHT30;54931;52.098;21.006;2022-12-07T01:09:00;3.06;88.99
68128;SHT30;54931;52.098;21.006;2022-12-07T01:11:31;3.10;88.90
68128;SHT30;54931;52.098;21.006;2022-12-07T01:14:00;3.10;88.92
68128;SHT30;54931;52.098;21.006;2022-12-07T01:16:29;3.11;88.90
68128;SHT30;54931;52.098;21.006;2022-12-07T01:18:59;3.13;88.88
68128;SHT30;54931;52.098;21.006;2022-12-07T01:21:29;3.14;88.88
68128;SHT30;54931;52.098;21.006;2022-12-07T01:24:05;3.16;88.84
68128;SHT30;54931;52.098;21.006;2022-12-07T01:26:36;3.17;88.80
68128;SHT30;54931;52.098;21.006;2022-12-07T01:29:04;3.18;88.81
68128;SHT30;54931;52.098;21.006;2022-12-07T01:31:32;3.19;88.82
68128;SHT30;54931;52.098;21.006;2022-12-07T01:34:00;3.21;88.80
68128;SHT30;54931;52.098;21.006;2022-12-07T01:36:29;3.21;88.79
68128;SHT30;54931;52.098;21.006;2022-12-07T01:39:02;3.22;88.80
68128;SHT30;54931;52.098;21.006;2022-12-07T01:41:34;3.20;88.81
68128;SHT30;54931;52.098;21.006;2022-12-07T01:44:23;3.20;88.85
68128;SHT30;54931;52.098;21.006;2022-12-07T01:46:58;3.21;88.84
68128;SHT30;54931;52.098;21.006;2022-12-07T01:49:38;3.21;88.84
68128;SHT30;54931;52.098;21.006;2022-12-07T01:52:25;3.22;88.78
68128;SHT30;54931;52.098;21.006;2022-12-07T01:55:09;3.21;88.75
68128;SHT30;54931;52.098;21.006;2022-12-07T01:57:41;3.20;88.75
68128;SHT30;54931;52.098;21.006;2022-12-07T02:00:22;3.20;88.74
68128;SHT30;54931;52.098;21.006;2022-12-07T02:05:33;3.19;88.70
68128;SHT30;54931;52.098;21.006;2022-12-07T02:08:03;3.18;88.72
68128;SHT30;54931;52.098;21.006;2022-12-07T02:10:32;3.18;88.71
68128;SHT30;54931;52.098;21.006;2022-12-07T02:30:46;3.15;88.69
68128;SHT30;54931;52.098;21.006;2022-12-07T02:33:24;3.14;88.69
68128;SHT30;54931;52.098;21.006;2022-12-07T02:38:37;3.13;88.70
68128;SHT30;54931;52.098;21.006;2022-12-07T02:41:48;3.13;88.71
68128;SHT30;54931;52.098;21.006;2022-12-07T02:44:24;3.13;88.70
68128;SHT30;54931;52.098;21.006;2022-12-07T02:46:59;3.11;88.70
68128;SHT30;54931;52.098;21.006;2022-12-07T02:49:33;3.11;88.70
68128;SHT30;54931;52.098;21.006;2022-12-07T02:52:03;3.09;88.74
68128;SHT30;54931;52.098;21.006;2022-12-07T02:54:31;3.10;88.70
68128;SHT30;54931;52.098;21.006;2022-12-07T03:00:11;3.07;88.73
68128;SHT30;54931;52.098;21.006;2022-12-07T03:02:57;3.06;88.71
68128;SHT30;54931;52.098;21.006;2022-12-07T03:06:06;3.04;88.68
68128;SHT30;54931;52.098;21.006;2022-12-07T03:08:41;3.02;88.60
68128;SHT30;54931;52.098;21.006;2022-12-07T03:14:30;2.98;88.54
68128;SHT30;54931;52.098;21.006;2022-12-07T03:17:10;2.96;88.36
68128;SHT30;54931;52.098;21.006;2022-12-07T03:19:49;2.92;88.24
68128;SHT30;54931;52.098;21.006;2022-12-07T03:22:23;2.88;88.36
68128;SHT30;54931;52.098;21.006;2022-12-07T03:24:58;2.84;88.40
68128;SHT30;54931;52.098;21.006;2022-12-07T03:27:32;2.81;88.39
68128;SHT30;54931;52.098;21.006;2022-12-07T03:32:43;2.75;88.26
68128;SHT30;54931;52.098;21.006;2022-12-07T03:35:37;2.71;88.18
68128;SHT30;54931;52.098;21.006;2022-12-07T03:43:29;2.55;88.21
68128;SHT30;54931;52.098;21.006;2022-12-07T03:46:01;2.51;88.27
68128;SHT30;54931;52.098;21.006;2022-12-07T03:55:15;2.42;88.44
68128;SHT30;54931;52.098;21.006;2022-12-07T03:57:53;2.41;88.48
68128;SHT30;54931;52.098;21.006;2022-12-07T04:00:28;2.39;88.48
68128;SHT30;54931;52.098;21.006;2022-12-07T04:02:56;2.38;88.43
68128;SHT30;54931;52.098;21.006;2022-12-07T04:05:23;2.36;88.47
68128;SHT30;54931;52.098;21.006;2022-12-07T04:07:52;2.33;88.45
68128;SHT30;54931;52.098;21.006;2022-12-07T04:10:19;2.31;88.48
68128;SHT30;54931;52.098;21.006;2022-12-07T04:12:47;2.29;88.50
68128;SHT30;54931;52.098;21.006;2022-12-07T04:15:15;2.28;88.50
68128;SHT30;54931;52.098;21.006;2022-12-07T04:17:43;2.26;88.48
68128;SHT30;54931;52.098;21.006;2022-12-07T04:20:11;2.23;88.41
68128;SHT30;54931;52.098;21.006;2022-12-07T04:22:39;2.21;88.42
68128;SHT30;54931;52.098;21.006;2022-12-07T04:25:07;2.20;88.41
68128;SHT30;54931;52.098;21.006;2022-12-07T04:27:36;2.18;88.47
68128;SHT30;54931;52.098;21.006;2022-12-07T04:30:03;2.17;88.46
68128;SHT30;54931;52.098;21.006;2022-12-07T04:32:34;2.17;88.50
68128;SHT30;54931;52.098;21.006;2022-12-07T04:35:02;2.16;88.47
68128;SHT30;54931;52.098;21.006;2022-12-07T04:37:33;2.13;88.43
68128;SHT30;54931;52.098;21.006;2022-12-07T04:40:03;2.11;88.47
68128;SHT30;54931;52.098;21.006;2022-12-07T04:42:32;2.09;88.44
68128;SHT30;54931;52.098;21.006;2022-12-07T04:45:00;2.07;88.42
68128;SHT30;54931;52.098;21.006;2022-12-07T04:47:28;2.05;88.50
68128;SHT30;54931;52.098;21.006;2022-12-07T04:49:57;2.03;88.49
68128;SHT30;54931;52.098;21.006;2022-12-07T04:52:25;2.01;88.49
68128;SHT30;54931;52.098;21.006;2022-12-07T04:54:53;2.00;88.50
68128;SHT30;54931;52.098;21.006;2022-12-07T04:57:20;1.98;88.45
68128;SHT30;54931;52.098;21.006;2022-12-07T04:59:48;1.97;88.43
68128;SHT30;54931;52.098;21.006;2022-12-07T05:02:15;1.95;88.41
68128;SHT30;54931;52.098;21.006;2022-12-07T05:04:43;1.94;88.36
68128;SHT30;54931;52.098;21.006;2022-12-07T05:07:10;1.92;88.40
68128;SHT30;54931;52.098;21.006;2022-12-07T05:09:38;1.89;88.34
68128;SHT30;54931;52.098;21.006;2022-12-07T05:12:06;1.86;88.41
68128;SHT30;54931;52.098;21.006;2022-12-07T05:14:33;1.86;88.46
68128;SHT30;54931;52.098;21.006;2022-12-07T05:17:01;1.85;88.48
68128;SHT30;54931;52.098;21.006;2022-12-07T05:19:29;1.84;88.47
68128;SHT30;54931;52.098;21.006;2022-12-07T05:21:57;1.82;88.40
68128;SHT30;54931;52.098;21.006;2022-12-07T05:24:24;1.81;88.43
68128;SHT30;54931;52.098;21.006;2022-12-07T05:26:52;1.79;88.43
68128;SHT30;54931;52.098;21.006;2022-12-07T05:29:19;1.77;88.48
68128;SHT30;54931;52.098;21.006;2022-12-07T05:31:47;1.77;88.50
68128;SHT30;54931;52.098;21.006;2022-12-07T05:34:14;1.76;88.52
68128;SHT30;54931;52.098;21.006;2022-12-07T05:36:42;1.76;88.50
68128;SHT30;54931;52.098;21.006;2022-12-07T05:39:10;1.74;88.50
68128;SHT30;54931;52.098;21.006;2022-12-07T05:41:38;1.72;88.50
68128;SHT30;54931;52.098;21.006;2022-12-07T05:44:25;1.70;88.56
68128;SHT30;54931;52.098;21.006;2022-12-07T05:46:53;1.69;88.63
68128;SHT30;54931;52.098;21.006;2022-12-07T05:49:20;1.69;88.63
68128;SHT30;54931;52.098;21.006;2022-12-07T05:51:48;1.69;88.65
68128;SHT30;54931;52.098;21.006;2022-12-07T05:54:15;1.70;88.66
68128;SHT30;54931;52.098;21.006;2022-12-07T05:56:44;1.70;88.67
68128;SHT30;54931;52.098;21.006;2022-12-07T05:59:12;1.71;88.66
68128;SHT30;54931;52.098;21.006;2022-12-07T06:04:33;1.71;88.68
68128;SHT30;54931;52.098;21.006;2022-12-07T06:07:04;1.71;88.64
68128;SHT30;54931;52.098;21.006;2022-12-07T06:09:32;1.72;88.60
68128;SHT30;54931;52.098;21.006;2022-12-07T06:12:02;1.72;88.68
68128;SHT30;54931;52.098;21.006;2022-12-07T06:14:50;1.72;88.65
68128;SHT30;54931;52.098;21.006;2022-12-07T06:17:18;1.69;88.57
68128;SHT30;54931;52.098;21.006;2022-12-07T06:19:46;1.69;88.68
68128;SHT30;54931;52.098;21.006;2022-12-07T06:22:14;1.70;88.71
68128;SHT30;54931;52.098;21.006;2022-12-07T06:24:43;1.68;88.64
68128;SHT30;54931;52.098;21.006;2022-12-07T06:27:11;1.66;88.63
68128;SHT30;54931;52.098;21.006;2022-12-07T06:29:39;1.66;88.60
68128;SHT30;54931;52.098;21.006;2022-12-07T06:32:06;1.64;88.68
68128;SHT30;54931;52.098;21.006;2022-12-07T06:34:34;1.63;88.60
68128;SHT30;54931;52.098;21.006;2022-12-07T06:37:03;1.63;88.64
68128;SHT30;54931;52.098;21.006;2022-12-07T06:39:31;1.65;88.72
68128;SHT30;54931;52.098;21.006;2022-12-07T06:41:59;1.66;88.67
68128;SHT30;54931;52.098;21.006;2022-12-07T06:44:26;1.65;88.57
68128;SHT30;54931;52.098;21.006;2022-12-07T06:46:55;1.63;88.57
68128;SHT30;54931;52.098;21.006;2022-12-07T06:49:23;1.62;88.57
68128;SHT30;54931;52.098;21.006;2022-12-07T06:51:51;1.61;88.60
68128;SHT30;54931;52.098;21.006;2022-12-07T06:54:19;1.59;88.61
68128;SHT30;54931;52.098;21.006;2022-12-07T06:56:47;1.60;88.64
68128;SHT30;54931;52.098;21.006;2022-12-07T06:59:15;1.61;88.64
68128;SHT30;54931;52.098;21.006;2022-12-07T07:01:42;1.61;88.62
68128;SHT30;54931;52.098;21.006;2022-12-07T07:04:10;1.64;88.70
68128;SHT30;54931;52.098;21.006;2022-12-07T07:06:38;1.66;88.70
68128;SHT30;54931;52.098;21.006;2022-12-07T07:09:06;1.68;88.61
68128;SHT30;54931;52.098;21.006;2022-12-07T07:11:33;1.69;88.63
68128;SHT30;54931;52.098;21.006;2022-12-07T07:14:01;1.71;88.66
68128;SHT30;54931;52.098;21.006;2022-12-07T07:16:30;1.71;88.56
68128;SHT30;54931;52.098;21.006;2022-12-07T07:18:58;1.70;88.54
68128;SHT30;54931;52.098;21.006;2022-12-07T07:21:25;1.67;88.53
68128;SHT30;54931;52.098;21.006;2022-12-07T07:23:53;1.67;88.59
68128;SHT30;54931;52.098;21.006;2022-12-07T07:26:21;1.68;88.63
68128;SHT30;54931;52.098;21.006;2022-12-07T07:28:48;1.69;88.63
68128;SHT30;54931;52.098;21.006;2022-12-07T07:31:16;1.70;88.64
68128;SHT30;54931;52.098;21.006;2022-12-07T07:33:45;1.69;88.60
68128;SHT30;54931;52.098;21.006;2022-12-07T07:36:14;1.71;88.59
68128;SHT30;54931;52.098;21.006;2022-12-07T07:38:41;1.71;88.59
68128;SHT30;54931;52.098;21.006;2022-12-07T07:41:09;1.73;88.59
68128;SHT30;54931;52.098;21.006;2022-12-07T07:43:37;1.73;88.66
68128;SHT30;54931;52.098;21.006;2022-12-07T07:46:05;1.75;88.68
68128;SHT30;54931;52.098;21.006;2022-12-07T07:48:32;1.75;88.60
68128;SHT30;54931;52.098;21.006;2022-12-07T07:51:04;1.75;88.59
68128;SHT30;54931;52.098;21.006;2022-12-07T07:53:33;1.75;88.61
68128;SHT30;54931;52.098;21.006;2022-12-07T07:56:03;1.76;88.60
68128;SHT30;54931;52.098;21.006;2022-12-07T07:58:31;1.76;88.64
68128;SHT30;54931;52.098;21.006;2022-12-07T08:01:06;1.78;88.69
68128;SHT30;54931;52.098;21.006;2022-12-07T08:03:34;1.80;88.71
68128;SHT30;54931;52.098;21.006;2022-12-07T08:06:03;1.82;88.71
68128;SHT30;54931;52.098;21.006;2022-12-07T08:08:31;1.83;88.75
68128;SHT30;54931;52.098;21.006;2022-12-07T08:10:59;1.84;88.71
68128;SHT30;54931;52.098;21.006;2022-12-07T08:13:28;1.85;88.79
68128;SHT30;54931;52.098;21.006;2022-12-07T08:15:56;1.87;88.84
68128;SHT30;54931;52.098;21.006;2022-12-07T08:18:23;1.90;88.84
68128;SHT30;54931;52.098;21.006;2022-12-07T08:20:51;1.91;88.89
68128;SHT30;54931;52.098;21.006;2022-12-07T08:23:18;1.92;88.91
68128;SHT30;54931;52.098;21.006;2022-12-07T08:25:46;1.95;88.97
68128;SHT30;54931;52.098;21.006;2022-12-07T08:28:14;1.98;88.91
68128;SHT30;54931;52.098;21.006;2022-12-07T08:30:42;1.99;89.04
68128;SHT30;54931;52.098;21.006;2022-12-07T08:33:10;2.02;89.01
68128;SHT30;54931;52.098;21.006;2022-12-07T08:35:38;2.04;89.04
68128;SHT30;54931;52.098;21.006;2022-12-07T08:38:06;2.05;89.09
68128;SHT30;54931;52.098;21.006;2022-12-07T08:40:34;2.07;89.13
68128;SHT30;54931;52.098;21.006;2022-12-07T08:43:03;2.10;89.27
68128;SHT30;54931;52.098;21.006;2022-12-07T08:45:31;2.15;89.25
68128;SHT30;54931;52.098;21.006;2022-12-07T08:48:04;2.20;89.14
68128;SHT30;54931;52.098;21.006;2022-12-07T08:50:37;2.26;89.17
68128;SHT30;54931;52.098;21.006;2022-12-07T08:53:06;2.33;89.05
68128;SHT30;54931;52.098;21.006;2022-12-07T08:55:34;2.40;88.93
68128;SHT30;54931;52.098;21.006;2022-12-07T08:58:02;2.47;88.87
68128;SHT30;54931;52.098;21.006;2022-12-07T09:00:30;2.54;88.75
68128;SHT30;54931;52.098;21.006;2022-12-07T09:02:58;2.60;88.64
68128;SHT30;54931;52.098;21.006;2022-12-07T09:05:26;2.68;88.34
68128;SHT30;54931;52.098;21.006;2022-12-07T09:07:55;2.75;88.21
68128;SHT30;54931;52.098;21.006;2022-12-07T09:10:28;2.78;88.10
68128;SHT30;54931;52.098;21.006;2022-12-07T09:12:56;2.81;87.96
68128;SHT30;54931;52.098;21.006;2022-12-07T09:15:28;2.86;87.95
68128;SHT30;54931;52.098;21.006;2022-12-07T09:17:58;2.88;87.89
68128;SHT30;54931;52.098;21.006;2022-12-07T09:20:26;2.90;87.76
68128;SHT30;54931;52.098;21.006;2022-12-07T09:22:53;2.92;87.84
68128;SHT30;54931;52.098;21.006;2022-12-07T09:25:22;2.94;87.85
68128;SHT30;54931;52.098;21.006;2022-12-07T09:27:57;2.96;87.80
68128;SHT30;54931;52.098;21.006;2022-12-07T09:30:26;2.96;87.73
68128;SHT30;54931;52.098;21.006;2022-12-07T09:32:55;2.96;87.77
68128;SHT30;54931;52.098;21.006;2022-12-07T09:35:24;2.99;87.82
68128;SHT30;54931;52.098;21.006;2022-12-07T09:37:53;3.00;87.69
68128;SHT30;54931;52.098;21.006;2022-12-07T09:40:21;3.04;87.61
68128;SHT30;54931;52.098;21.006;2022-12-07T09:42:52;3.06;87.61
68128;SHT30;54931;52.098;21.006;2022-12-07T09:45:24;3.08;87.34
68128;SHT30;54931;52.098;21.006;2022-12-07T09:48:03;3.10;87.42
68128;SHT30;54931;52.098;21.006;2022-12-07T09:50:32;3.12;87.38
68128;SHT30;54931;52.098;21.006;2022-12-07T09:53:05;3.15;87.36
68128;SHT30;54931;52.098;21.006;2022-12-07T09:55:52;3.17;87.12
68128;SHT30;54931;52.098;21.006;2022-12-07T09:58:24;3.17;86.33
68128;SHT30;54931;52.098;21.006;2022-12-07T10:03:35;3.20;86.46
68128;SHT30;54931;52.098;21.006;2022-12-07T10:06:05;3.22;86.60
68128;SHT30;54931;52.098;21.006;2022-12-07T10:08:34;3.23;86.38
68128;SHT30;54931;52.098;21.006;2022-12-07T10:11:02;3.26;86.65
68128;SHT30;54931;52.098;21.006;2022-12-07T10:13:35;3.29;86.67
68128;SHT30;54931;52.098;21.006;2022-12-07T10:18:52;3.33;86.42
68128;SHT30;54931;52.098;21.006;2022-12-07T10:21:21;3.36;86.60
68128;SHT30;54931;52.098;21.006;2022-12-07T10:26:40;3.37;85.96
68128;SHT30;54931;52.098;21.006;2022-12-07T10:29:23;3.37;86.24
68128;SHT30;54931;52.098;21.006;2022-12-07T10:32:00;3.36;86.02
68128;SHT30;54931;52.098;21.006;2022-12-07T10:34:41;3.36;85.69
68128;SHT30;54931;52.098;21.006;2022-12-07T10:40:01;3.37;85.98
68128;SHT30;54931;52.098;21.006;2022-12-07T10:42:31;3.38;85.96
68128;SHT30;54931;52.098;21.006;2022-12-07T10:48:10;3.43;85.66
68128;SHT30;54931;52.098;21.006;2022-12-07T10:53:39;3.50;85.00
68128;SHT30;54931;52.098;21.006;2022-12-07T10:56:42;3.50;84.96
68128;SHT30;54931;52.098;21.006;2022-12-07T11:12:10;3.76;84.83
68128;SHT30;54931;52.098;21.006;2022-12-07T11:14:57;3.80;84.49
68128;SHT30;54931;52.098;21.006;2022-12-07T11:17:54;3.82;84.20
68128;SHT30;54931;52.098;21.006;2022-12-07T11:30:23;3.83;84.19
68128;SHT30;54931;52.098;21.006;2022-12-07T11:38:23;3.92;84.42
68128;SHT30;54931;52.098;21.006;2022-12-07T11:41:09;3.91;84.15
68128;SHT30;54931;52.098;21.006;2022-12-07T11:55:40;3.86;84.55
68128;SHT30;54931;52.098;21.006;2022-12-07T12:01:11;3.90;84.38
68128;SHT30;54931;52.098;21.006;2022-12-07T12:03:45;3.85;84.28
68128;SHT30;54931;52.098;21.006;2022-12-07T12:06:16;3.78;84.52
68128;SHT30;54931;52.098;21.006;2022-12-07T12:08:53;3.80;84.64
68128;SHT30;54931;52.098;21.006;2022-12-07T12:20:20;3.77;84.83
68128;SHT30;54931;52.098;21.006;2022-12-07T12:26:22;3.82;84.81
68128;SHT30;54931;52.098;21.006;2022-12-07T12:29:03;3.85;84.80
68128;SHT30;54931;52.098;21.006;2022-12-07T12:31:39;3.84;84.89
68128;SHT30;54931;52.098;21.006;2022-12-07T12:38:20;3.74;85.12
68128;SHT30;54931;52.098;21.006;2022-12-07T12:42:45;3.70;84.86
68128;SHT30;54931;52.098;21.006;2022-12-07T12:45:23;3.63;84.97
68128;SHT30;54931;52.098;21.006;2022-12-07T12:50:34;3.52;85.35
68128;SHT30;54931;52.098;21.006;2022-12-07T12:56:13;3.41;85.54
68128;SHT30;54931;52.098;21.006;2022-12-07T13:02:08;3.36;85.72
68128;SHT30;54931;52.098;21.006;2022-12-07T13:13:01;3.28;85.79
68128;SHT30;54931;52.098;21.006;2022-12-07T13:15:43;3.27;85.83
68128;SHT30;54931;52.098;21.006;2022-12-07T13:18:41;3.26;85.81
68128;SHT30;54931;52.098;21.006;2022-12-07T13:23:38;3.22;85.27
68128;SHT30;54931;52.098;21.006;2022-12-07T13:26:17;3.21;85.45
68128;SHT30;54931;52.098;21.006;2022-12-07T13:31:38;3.20;85.44
68128;SHT30;54931;52.098;21.006;2022-12-07T13:37:02;3.20;85.41
68128;SHT30;54931;52.098;21.006;2022-12-07T13:39:58;3.21;85.50
68128;SHT30;54931;52.098;21.006;2022-12-07T13:42:43;3.23;85.56
68128;SHT30;54931;52.098;21.006;2022-12-07T13:51:01;3.26;85.42
68128;SHT30;54931;52.098;21.006;2022-12-07T13:53:31;3.23;85.46
68128;SHT30;54931;52.098;21.006;2022-12-07T13:55:59;3.22;85.10
68128;SHT30;54931;52.098;21.006;2022-12-07T13:58:30;3.23;85.16
68128;SHT30;54931;52.098;21.006;2022-12-07T14:01:00;3.22;85.24
68128;SHT30;54931;52.098;21.006;2022-12-07T14:03:32;3.22;85.38
68128;SHT30;54931;52.098;21.006;2022-12-07T14:06:04;3.20;85.28
68128;SHT30;54931;52.098;21.006;2022-12-07T14:08:46;3.15;85.29
68128;SHT30;54931;52.098;21.006;2022-12-07T14:11:18;3.12;85.21
68128;SHT30;54931;52.098;21.006;2022-12-07T14:13:58;3.11;85.20
68128;SHT30;54931;52.098;21.006;2022-12-07T14:16:32;3.10;85.22
68128;SHT30;54931;52.098;21.006;2022-12-07T14:19:06;3.07;85.20
68128;SHT30;54931;52.098;21.006;2022-12-07T14:25:21;2.96;85.04
68128;SHT30;54931;52.098;21.006;2022-12-07T14:27:56;2.95;85.17
68128;SHT30;54931;52.098;21.006;2022-12-07T14:30:27;2.91;85.17
68128;SHT30;54931;52.098;21.006;2022-12-07T14:33:04;2.85;84.88
68128;SHT30;54931;52.098;21.006;2022-12-07T14:35:32;2.80;85.01
68128;SHT30;54931;52.098;21.006;2022-12-07T14:38:00;2.76;85.24
68128;SHT30;54931;52.098;21.006;2022-12-07T14:40:28;2.74;85.24
68128;SHT30;54931;52.098;21.006;2022-12-07T14:43:00;2.73;85.24
68128;SHT30;54931;52.098;21.006;2022-12-07T14:45:31;2.71;85.24
68128;SHT30;54931;52.098;21.006;2022-12-07T14:47:59;2.68;85.30
68128;SHT30;54931;52.098;21.006;2022-12-07T14:50:35;2.64;85.21
68128;SHT30;54931;52.098;21.006;2022-12-07T14:53:14;2.59;85.32
68128;SHT30;54931;52.098;21.006;2022-12-07T14:55:47;2.54;85.40
68128;SHT30;54931;52.098;21.006;2022-12-07T14:58:32;2.51;85.41
68128;SHT30;54931;52.098;21.006;2022-12-07T15:01:00;2.45;85.48
68128;SHT30;54931;52.098;21.006;2022-12-07T15:03:28;2.39;85.53
68128;SHT30;54931;52.098;21.006;2022-12-07T15:05:57;2.33;85.66
68128;SHT30;54931;52.098;21.006;2022-12-07T15:08:25;2.28;85.75
68128;SHT30;54931;52.098;21.006;2022-12-07T15:10:53;2.22;85.85
68128;SHT30;54931;52.098;21.006;2022-12-07T15:13:21;2.17;85.92
68128;SHT30;54931;52.098;21.006;2022-12-07T15:16:12;2.10;86.12
68128;SHT30;54931;52.098;21.006;2022-12-07T15:18:46;2.04;86.27
68128;SHT30;54931;52.098;21.006;2022-12-07T15:21:15;1.99;86.44
68128;SHT30;54931;52.098;21.006;2022-12-07T15:23:43;1.96;86.67
68128;SHT30;54931;52.098;21.006;2022-12-07T15:26:13;1.91;86.86
68128;SHT30;54931;52.098;21.006;2022-12-07T15:28:41;1.87;87.06
68128;SHT30;54931;52.098;21.006;2022-12-07T15:31:12;1.84;87.25
68128;SHT30;54931;52.098;21.006;2022-12-07T15:33:43;1.83;87.36
68128;SHT30;54931;52.098;21.006;2022-12-07T15:36:15;1.83;87.40
68128;SHT30;54931;52.098;21.006;2022-12-07T15:38:49;1.84;87.47
68128;SHT30;54931;52.098;21.006;2022-12-07T15:41:17;1.86;87.51
68128;SHT30;54931;52.098;21.006;2022-12-07T15:43:46;1.87;87.61
68128;SHT30;54931;52.098;21.006;2022-12-07T15:46:33;1.90;87.69
68128;SHT30;54931;52.098;21.006;2022-12-07T15:49:07;1.92;87.69
68128;SHT30;54931;52.098;21.006;2022-12-07T15:51:46;1.94;87.73
68128;SHT30;54931;52.098;21.006;2022-12-07T15:56:53;1.92;87.87
68128;SHT30;54931;52.098;21.006;2022-12-07T15:59:22;1.93;87.90
68128;SHT30;54931;52.098;21.006;2022-12-07T16:01:52;1.95;87.96
68128;SHT30;54931;52.098;21.006;2022-12-07T16:04:20;1.97;87.99
68128;SHT30;54931;52.098;21.006;2022-12-07T16:06:48;2.00;88.01
68128;SHT30;54931;52.098;21.006;2022-12-07T16:09:18;2.02;88.03
68128;SHT30;54931;52.098;21.006;2022-12-07T16:11:46;2.05;88.03
68128;SHT30;54931;52.098;21.006;2022-12-07T16:14:14;2.09;88.05
68128;SHT30;54931;52.098;21.006;2022-12-07T16:16:42;2.12;88.00
68128;SHT30;54931;52.098;21.006;2022-12-07T16:19:10;2.12;88.05
68128;SHT30;54931;52.098;21.006;2022-12-07T16:21:38;2.14;88.00
68128;SHT30;54931;52.098;21.006;2022-12-07T16:24:07;2.16;88.00
68128;SHT30;54931;52.098;21.006;2022-12-07T16:26:37;2.17;88.01
68128;SHT30;54931;52.098;21.006;2022-12-07T16:29:04;2.19;88.00
68128;SHT30;54931;52.098;21.006;2022-12-07T16:31:33;2.17;87.92
68128;SHT30;54931;52.098;21.006;2022-12-07T16:34:01;2.16;87.91
68128;SHT30;54931;52.098;21.006;2022-12-07T16:36:29;2.14;87.87
68128;SHT30;54931;52.098;21.006;2022-12-07T16:38:58;2.11;87.83
68128;SHT30;54931;52.098;21.006;2022-12-07T16:41:27;2.08;87.81
68128;SHT30;54931;52.098;21.006;2022-12-07T16:43:56;2.03;87.81
68128;SHT30;54931;52.098;21.006;2022-12-07T16:46:24;2.00;87.88
68128;SHT30;54931;52.098;21.006;2022-12-07T16:48:52;1.98;87.90
68128;SHT30;54931;52.098;21.006;2022-12-07T16:51:19;1.93;87.90
68128;SHT30;54931;52.098;21.006;2022-12-07T16:53:48;1.89;87.88
68128;SHT30;54931;52.098;21.006;2022-12-07T16:56:19;1.85;87.87
68128;SHT30;54931;52.098;21.006;2022-12-07T16:58:48;1.86;88.02
68128;SHT30;54931;52.098;21.006;2022-12-07T17:01:17;1.86;88.14
68128;SHT30;54931;52.098;21.006;2022-12-07T17:03:51;1.88;88.20
68128;SHT30;54931;52.098;21.006;2022-12-07T17:06:20;1.91;88.16
68128;SHT30;54931;52.098;21.006;2022-12-07T17:08:52;1.96;88.18
68128;SHT30;54931;52.098;21.006;2022-12-07T17:11:22;2.00;88.20
68128;SHT30;54931;52.098;21.006;2022-12-07T17:13:58;2.03;88.15
68128;SHT30;54931;52.098;21.006;2022-12-07T17:16:45;2.03;88.11
68128;SHT30;54931;52.098;21.006;2022-12-07T17:19:14;2.05;88.09
68128;SHT30;54931;52.098;21.006;2022-12-07T17:21:44;2.03;88.02
68128;SHT30;54931;52.098;21.006;2022-12-07T17:24:13;2.02;88.02
68128;SHT30;54931;52.098;21.006;2022-12-07T17:26:43;2.02;88.10
68128;SHT30;54931;52.098;21.006;2022-12-07T17:29:14;2.04;88.11
68128;SHT30;54931;52.098;21.006;2022-12-07T17:31:44;2.05;88.08
68128;SHT30;54931;52.098;21.006;2022-12-07T17:34:14;2.05;87.99
68128;SHT30;54931;52.098;21.006;2022-12-07T17:36:43;2.07;87.96
68128;SHT30;54931;52.098;21.006;2022-12-07T17:39:13;2.06;87.92
68128;SHT30;54931;52.098;21.006;2022-12-07T17:41:44;2.07;87.90
68128;SHT30;54931;52.098;21.006;2022-12-07T17:44:32;2.09;87.85
68128;SHT30;54931;52.098;21.006;2022-12-07T17:47:00;2.12;87.88
68128;SHT30;54931;52.098;21.006;2022-12-07T17:49:29;2.15;87.81
68128;SHT30;54931;52.098;21.006;2022-12-07T17:51:58;2.18;87.80
68128;SHT30;54931;52.098;21.006;2022-12-07T17:54:49;2.22;87.77
68128;SHT30;54931;52.098;21.006;2022-12-07T17:57:17;2.23;87.57
68128;SHT30;54931;52.098;21.006;2022-12-07T17:59:45;2.25;87.55
68128;SHT30;54931;52.098;21.006;2022-12-07T18:02:14;2.27;87.53
68128;SHT30;54931;52.098;21.006;2022-12-07T18:04:43;2.28;87.54
68128;SHT30;54931;52.098;21.006;2022-12-07T18:07:13;2.31;87.47
68128;SHT30;54931;52.098;21.006;2022-12-07T18:09:42;2.37;87.27
68128;SHT30;54931;52.098;21.006;2022-12-07T18:12:10;2.43;87.12
68128;SHT30;54931;52.098;21.006;2022-12-07T18:14:39;2.50;87.07
68128;SHT30;54931;52.098;21.006;2022-12-07T18:17:07;2.56;86.78
68128;SHT30;54931;52.098;21.006;2022-12-07T18:19:36;2.61;86.68
68128;SHT30;54931;52.098;21.006;2022-12-07T18:22:04;2.66;86.60
68128;SHT30;54931;52.098;21.006;2022-12-07T18:24:32;2.74;86.44
68128;SHT30;54931;52.098;21.006;2022-12-07T18:27:01;2.78;86.25
68128;SHT30;54931;52.098;21.006;2022-12-07T18:29:29;2.82;85.83
68128;SHT30;54931;52.098;21.006;2022-12-07T18:31:57;2.84;85.88
68128;SHT30;54931;52.098;21.006;2022-12-07T18:34:24;2.82;85.89
68128;SHT30;54931;52.098;21.006;2022-12-07T18:36:55;2.83;85.72
68128;SHT30;54931;52.098;21.006;2022-12-07T18:39:23;2.85;85.54